Time;durP1;ratioP1;P1;durP2;ratioP2;P2;SDS_P1;SDS_P2;PMS_P1;PMS_P2;Temp;Humidity;BMP_temperature;BMP_pressure;BME280_temperature;BME280_humidity;BME280_pressure;Samples;Min_cycle;Max_cycle;Signal;HPM_P1;HPM_P2
2021/01/10 00:01:19;;;;;;;17.52;12.77;;;4.00;1.00;;;;;;5053147;28;20260;-85
2021/01/10 00:03:46;;;;;;;18.77;13.85;;;4.00;1.00;;;;;;5049422;28;21100;-86
2021/01/10 00:06:14;;;;;;;17.48;13.82;;;4.00;1.00;;;;;;5057408;28;20281;-87
2021/01/10 00:08:44;;;;;;;18.83;13.10;;;4.00;1.00;;;;;;5177375;22;20231;-86
2021/01/10 00:11:11;;;;;;;18.00;13.75;;;4.10;1.00;;;;;;5115994;27;20220;-88
2021/01/10 00:13:38;;;;;;;19.45;14.05;;;4.10;1.00;;;;;;5099535;27;20227;-89
2021/01/10 00:16:08;;;;;;;19.73;13.80;;;4.10;1.00;;;;;;5104346;27;20215;-86
2021/01/10 00:22:03;;;;;;;16.98;12.38;;;4.10;1.00;;;;;;5114141;28;20227;-87
2021/01/10 00:24:29;;;;;;;17.38;13.73;;;4.10;1.00;;;;;;5093575;28;20216;-86
2021/01/10 00:26:56;;;;;;;19.85;15.32;;;4.10;1.00;;;;;;5102297;28;20243;-85
2021/01/10 00:29:23;;;;;;;17.13;13.05;;;4.10;1.00;;;;;;5101362;28;20224;-85
2021/01/10 00:31:51;;;;;;;17.50;13.45;;;4.10;1.00;;;;;;5104024;28;20213;-84
2021/01/10 00:34:18;;;;;;;20.50;15.10;;;4.10;1.00;;;;;;5088402;28;20290;-86
2021/01/10 00:36:47;;;;;;;17.42;14.70;;;4.10;1.00;;;;;;5076771;28;20227;-86
2021/01/10 00:39:16;;;;;;;19.42;14.82;;;4.10;1.00;;;;;;5104008;28;20237;-85
2021/01/10 00:41:42;;;;;;;18.45;14.77;;;4.10;1.00;;;;;;5082501;28;20697;-84
2021/01/10 00:44:10;;;;;;;17.23;13.88;;;4.10;1.00;;;;;;5083750;28;20975;-85
2021/01/10 00:46:37;;;;;;;18.40;13.65;;;4.10;1.00;;;;;;5081512;28;20224;-85
2021/01/10 00:49:04;;;;;;;18.73;14.23;;;4.00;1.00;;;;;;5084579;28;20209;-84
2021/01/10 00:51:31;;;;;;;18.38;13.30;;;4.00;1.00;;;;;;5084100;28;20233;-83
2021/01/10 00:53:58;;;;;;;18.95;13.52;;;4.10;1.00;;;;;;5088691;28;20237;-84
2021/01/10 00:56:26;;;;;;;16.60;13.45;;;4.10;1.00;;;;;;5081323;28;20228;-86
2021/01/10 00:58:53;;;;;;;17.45;14.13;;;4.10;1.00;;;;;;5115257;28;20224;-87
2021/01/10 01:01:21;;;;;;;22.20;13.90;;;4.10;1.00;;;;;;5088946;28;20249;-85
2021/01/10 01:03:49;;;;;;;18.08;14.10;;;4.00;1.00;;;;;;5094326;28;21140;-85
2021/01/10 01:06:20;;;;;;;15.38;12.88;;;4.00;1.00;;;;;;5072861;28;20229;-86
2021/01/10 01:08:46;;;;;;;19.90;13.98;;;4.00;1.00;;;;;;5098437;28;20235;-85
2021/01/10 01:11:15;;;;;;;18.63;13.68;;;4.00;1.00;;;;;;5086164;28;20251;-85
2021/01/10 01:13:45;;;;;;;21.02;14.07;;;4.00;1.00;;;;;;5086562;28;20231;-85
2021/01/10 01:16:15;;;;;;;19.70;13.82;;;4.10;1.00;;;;;;5087475;28;20232;-85
2021/01/10 01:18:43;;;;;;;22.52;16.08;;;4.10;1.00;;;;;;5105680;28;20227;-86
2021/01/10 01:21:13;;;;;;;21.02;16.25;;;4.10;1.00;;;;;;5098392;28;21118;-84
2021/01/10 01:23:41;;;;;;;22.00;16.02;;;4.00;1.00;;;;;;5089234;28;20241;-84
2021/01/10 01:26:07;;;;;;;21.17;16.52;;;4.00;1.00;;;;;;5114957;28;20224;-83
2021/01/10 01:28:34;;;;;;;24.00;15.07;;;4.00;1.00;;;;;;5113997;28;20241;-86
2021/01/10 01:31:02;;;;;;;18.90;14.85;;;4.00;1.00;;;;;;5111767;27;20224;-88
2021/01/10 01:33:29;;;;;;;21.67;15.85;;;4.00;1.00;;;;;;5121422;27;20211;-87
2021/01/10 01:35:56;;;;;;;21.90;15.40;;;4.00;1.00;;;;;;5108828;27;20212;-86
2021/01/10 01:38:22;;;;;;;23.00;15.70;;;4.00;1.00;;;;;;5082586;28;20409;-83
2021/01/10 01:40:59;;;;;;;22.95;15.95;;;4.00;1.00;;;;;;5089390;28;21152;-82
2021/01/10 01:43:27;;;;;;;22.30;16.83;;;4.00;1.00;;;;;;5076898;28;20246;-85
2021/01/10 01:45:54;;;;;;;20.77;15.38;;;4.00;1.00;;;;;;5078631;28;20232;-84
2021/01/10 01:48:21;;;;;;;20.90;15.65;;;4.00;1.00;;;;;;5099041;28;20244;-85
2021/01/10 01:50:49;;;;;;;18.98;13.95;;;3.90;1.00;;;;;;5095054;28;20216;-84
2021/01/10 01:53:15;;;;;;;21.40;15.63;;;3.90;1.00;;;;;;5089790;28;20238;-84
2021/01/10 01:55:46;;;;;;;24.77;16.88;;;3.90;1.00;;;;;;5113729;28;20223;-84
2021/01/10 01:58:15;;;;;;;21.83;15.23;;;3.90;1.00;;;;;;5087364;28;20246;-87
2021/01/10 02:00:42;;;;;;;22.48;17.05;;;3.90;1.00;;;;;;5101008;28;20229;-84
2021/01/10 02:03:12;;;;;;;21.83;15.48;;;3.90;1.00;;;;;;5077481;28;20287;-83
2021/01/10 02:05:41;;;;;;;24.75;16.58;;;3.80;1.00;;;;;;5100157;28;20227;-84
2021/01/10 02:08:10;;;;;;;21.42;15.73;;;3.80;1.00;;;;;;5112484;28;20280;-87
2021/01/10 02:10:41;;;;;;;20.48;14.77;;;3.80;1.00;;;;;;5098506;28;20219;-85
2021/01/10 02:13:14;;;;;;;22.23;16.25;;;3.80;1.00;;;;;;5089060;28;20243;-85
2021/01/10 02:15:43;;;;;;;18.17;11.85;;;3.80;1.00;;;;;;5115020;28;20220;-86
2021/01/10 02:18:14;;;;;;;19.52;13.88;;;3.70;1.00;;;;;;5098410;28;20224;-86
2021/01/10 02:20:43;;;;;;;21.90;14.90;;;3.70;1.00;;;;;;5117688;28;20257;-85
2021/01/10 02:23:17;;;;;;;18.52;13.35;;;3.70;1.00;;;;;;5083742;28;20318;-82
2021/01/10 02:25:47;;;;;;;17.17;12.32;;;3.60;1.00;;;;;;5084990;28;20227;-83
2021/01/10 02:28:15;;;;;;;21.42;12.90;;;3.60;1.00;;;;;;5072824;28;20247;-87
2021/01/10 02:30:43;;;;;;;15.73;11.95;;;3.60;1.00;;;;;;5106973;28;20219;-83
2021/01/10 02:33:17;;;;;;;17.70;13.85;;;3.50;1.00;;;;;;5077080;28;20232;-84
2021/01/10 02:35:44;;;;;;;14.68;10.73;;;3.50;1.00;;;;;;5080379;28;20287;-86
2021/01/10 02:38:33;;;;;;;16.00;12.18;;;3.50;1.00;;;;;;5096554;28;20250;-85
2021/01/10 02:41:12;;;;;;;17.10;12.40;;;3.50;1.00;;;;;;5081955;28;20236;-85
2021/01/10 02:43:44;;;;;;;18.27;12.68;;;3.50;1.00;;;;;;5096057;28;20292;-85
2021/01/10 02:46:11;;;;;;;16.25;12.27;;;3.50;1.00;;;;;;5106570;28;20220;-88
2021/01/10 02:48:38;;;;;;;20.63;13.82;;;3.50;1.00;;;;;;5091453;27;20224;-86
2021/01/10 02:51:05;;;;;;;20.35;14.63;;;3.60;1.00;;;;;;5110425;28;20256;-87
2021/01/10 02:53:32;;;;;;;23.42;15.60;;;3.60;1.00;;;;;;5082681;28;20324;-87
2021/01/10 02:55:59;;;;;;;21.05;13.23;;;3.50;1.00;;;;;;5065956;28;20217;-84
2021/01/10 02:58:28;;;;;;;20.83;14.50;;;3.50;1.00;;;;;;5078674;28;20267;-83
2021/01/10 03:00:59;;;;;;;20.02;13.20;;;3.50;1.00;;;;;;5101935;28;20231;-84
2021/01/10 03:03:28;;;;;;;17.08;13.23;;;3.50;1.00;;;;;;5103513;28;20237;-84
2021/01/10 03:05:56;;;;;;;17.92;13.07;;;3.50;1.00;;;;;;5082391;28;20620;-86
2021/01/10 03:08:25;;;;;;;27.90;15.60;;;3.40;1.00;;;;;;5104844;28;20221;-85
2021/01/10 03:10:52;;;;;;;19.63;13.68;;;3.40;1.00;;;;;;5112699;28;20220;-88
2021/01/10 03:13:19;;;;;;;14.75;11.73;;;3.40;1.00;;;;;;5356773;22;20236;-86
2021/01/10 03:15:47;;;;;;;16.45;12.20;;;3.40;1.00;;;;;;5098939;28;20224;-86
2021/01/10 03:18:18;;;;;;;14.10;11.05;;;3.40;1.00;;;;;;5106289;28;20227;-86
2021/01/10 03:20:46;;;;;;;15.35;10.38;;;3.40;1.00;;;;;;5074816;28;20340;-87
2021/01/10 03:23:14;;;;;;;17.42;11.82;;;3.50;1.00;;;;;;5086182;28;20279;-87
2021/01/10 03:25:40;;;;;;;14.10;10.13;;;3.50;1.00;;;;;;5072234;28;20229;-84
2021/01/10 03:28:07;;;;;;;16.92;12.60;;;3.60;1.00;;;;;;5045815;28;20333;-83
2021/01/10 03:30:34;;;;;;;13.95;9.80;;;3.60;1.00;;;;;;5043159;28;20732;-85
2021/01/10 03:33:02;;;;;;;15.13;10.40;;;3.60;1.00;;;;;;5040863;28;20237;-85
2021/01/10 03:35:29;;;;;;;16.83;12.02;;;3.70;1.00;;;;;;5073635;28;21033;-84
2021/01/10 03:37:55;;;;;;;18.67;11.88;;;3.70;1.00;;;;;;5068101;28;20229;-85
2021/01/10 03:40:23;;;;;;;19.05;12.38;;;3.70;1.00;;;;;;5075014;28;20255;-86
2021/01/10 03:42:52;;;;;;;16.83;13.77;;;3.70;1.00;;;;;;5050290;28;20631;-84
2021/01/10 03:45:19;;;;;;;20.75;13.40;;;3.70;1.00;;;;;;5060442;28;20217;-83
2021/01/10 03:47:46;;;;;;;20.25;13.35;;;3.70;1.00;;;;;;5067315;28;20259;-83
2021/01/10 03:50:14;;;;;;;16.23;12.55;;;3.70;1.00;;;;;;5058200;28;20211;-86
2021/01/10 03:52:40;;;;;;;20.27;13.35;;;3.60;1.00;;;;;;5056833;28;20288;-86
2021/01/10 03:55:08;;;;;;;20.10;12.80;;;3.60;1.00;;;;;;5069344;28;20217;-86
2021/01/10 03:57:39;;;;;;;16.73;11.80;;;3.60;1.00;;;;;;5063562;28;20214;-83
2021/01/10 04:00:09;;;;;;;20.25;12.55;;;3.50;1.00;;;;;;5060393;28;20237;-85
2021/01/10 04:02:36;;;;;;;15.05;11.90;;;3.50;1.00;;;;;;5052546;28;21057;-85
2021/01/10 04:05:03;;;;;;;18.00;12.68;;;3.50;1.00;;;;;;5051874;28;20226;-85
2021/01/10 04:07:31;;;;;;;20.73;13.65;;;3.50;1.00;;;;;;5069772;28;20256;-84
2021/01/10 04:09:58;;;;;;;18.10;13.07;;;3.50;1.00;;;;;;5057797;28;20228;-85
2021/01/10 04:12:27;;;;;;;20.75;13.68;;;3.50;1.00;;;;;;5050017;28;20238;-84
2021/01/10 04:14:56;;;;;;;22.45;15.05;;;3.50;1.00;;;;;;5057751;28;20225;-84
2021/01/10 04:17:25;;;;;;;19.50;13.73;;;3.50;1.00;;;;;;5064461;28;20233;-85
2021/01/10 04:19:52;;;;;;;18.92;12.07;;;3.40;1.00;;;;;;5069338;28;20234;-83
2021/01/10 04:22:18;;;;;;;18.58;13.93;;;3.40;1.00;;;;;;5055781;28;20222;-83
2021/01/10 04:24:46;;;;;;;19.33;11.95;;;3.30;1.00;;;;;;5066201;28;20218;-84
2021/01/10 04:27:12;;;;;;;20.38;13.52;;;3.30;1.00;;;;;;5049820;28;20306;-87
2021/01/10 04:29:40;;;;;;;16.88;11.70;;;3.30;1.00;;;;;;5071842;28;20229;-85
2021/01/10 04:32:07;;;;;;;16.85;11.15;;;3.20;1.00;;;;;;5071262;28;20217;-85
2021/01/10 04:34:33;;;;;;;15.98;10.98;;;3.20;1.00;;;;;;5068362;28;20791;-86
2021/01/10 04:36:59;;;;;;;19.08;12.88;;;3.20;1.00;;;;;;5077035;28;20224;-84
2021/01/10 04:39:27;;;;;;;15.93;11.20;;;3.20;1.00;;;;;;5052168;28;20237;-85
2021/01/10 04:41:55;;;;;;;19.42;13.55;;;3.20;1.00;;;;;;5059935;28;20284;-86
2021/01/10 04:44:23;;;;;;;16.25;12.32;;;3.20;1.00;;;;;;5047029;28;20241;-85
2021/01/10 04:46:50;;;;;;;18.65;12.20;;;3.20;1.00;;;;;;5074916;28;20260;-85
2021/01/10 04:49:18;;;;;;;20.13;12.48;;;3.10;1.00;;;;;;5068025;28;20235;-84
2021/01/10 04:51:46;;;;;;;16.88;11.30;;;3.10;1.00;;;;;;5073999;28;20311;-84
2021/01/10 04:54:15;;;;;;;17.05;11.15;;;3.00;1.00;;;;;;5064443;28;20264;-85
2021/01/10 04:56:43;;;;;;;13.57;9.95;;;3.10;1.00;;;;;;5056918;28;20240;-83
2021/01/10 04:59:11;;;;;;;17.27;11.00;;;3.00;1.00;;;;;;5080765;28;20238;-85
2021/01/10 05:01:45;;;;;;;15.07;10.80;;;3.00;1.00;;;;;;5061965;28;20258;-85
2021/01/10 05:04:12;;;;;;;16.05;11.43;;;3.00;1.00;;;;;;5078999;28;20243;-88
2021/01/10 05:06:40;;;;;;;15.18;10.93;;;3.00;1.00;;;;;;5089514;28;20220;-85
2021/01/10 05:09:07;;;;;;;16.02;10.98;;;3.10;1.00;;;;;;5059122;28;20225;-82
2021/01/10 05:11:35;;;;;;;14.43;10.93;;;3.10;1.00;;;;;;5050015;28;20230;-85
2021/01/10 05:14:02;;;;;;;15.52;10.52;;;3.10;1.00;;;;;;5089351;28;20786;-86
2021/01/10 05:16:34;;;;;;;14.25;10.50;;;3.00;1.00;;;;;;5067333;28;20218;-85
2021/01/10 05:19:01;;;;;;;16.67;12.13;;;3.00;1.00;;;;;;5086455;28;20221;-88
2021/01/10 05:21:29;;;;;;;17.42;11.35;;;2.90;1.00;;;;;;5077231;28;20270;-85
2021/01/10 05:23:57;;;;;;;20.17;12.57;;;2.90;1.00;;;;;;5075627;28;20245;-83
2021/01/10 05:26:31;;;;;;;16.98;11.48;;;2.80;1.00;;;;;;5070651;28;20206;-83
2021/01/10 05:29:04;;;;;;;17.75;13.00;;;2.80;1.00;;;;;;5077677;28;20220;-86
2021/01/10 05:31:39;;;;;;;15.60;11.75;;;2.80;1.00;;;;;;5062476;28;20229;-84
2021/01/10 05:34:05;;;;;;;19.38;13.27;;;2.80;1.00;;;;;;5074800;28;20269;-86
2021/01/10 05:36:33;;;;;;;22.38;13.82;;;2.80;1.00;;;;;;5061228;28;20218;-86
2021/01/10 05:39:19;;;;;;;19.92;13.93;;;2.80;1.00;;;;;;5075533;28;20332;-89
2021/01/10 05:41:53;;;;;;;21.10;14.88;;;2.90;1.00;;;;;;5078371;28;20221;-83
2021/01/10 05:44:21;;;;;;;19.83;12.63;;;2.90;1.00;;;;;;5070588;28;20235;-86
2021/01/10 05:46:49;;;;;;;18.98;12.60;;;2.90;1.00;;;;;;5051210;28;20214;-89
2021/01/10 05:49:17;;;;;;;16.98;12.07;;;2.90;1.00;;;;;;5082860;28;20233;-88
2021/01/10 05:51:45;;;;;;;21.13;13.65;;;2.90;1.00;;;;;;5091748;28;20205;-88
2021/01/10 05:54:34;;;;;;;15.60;11.55;;;2.90;1.00;;;;;;5071864;28;20241;-88
2021/01/10 05:57:02;;;;;;;15.57;11.50;;;2.90;1.00;;;;;;5062324;28;20225;-83
2021/01/10 05:59:32;;;;;;;15.50;11.05;;;2.90;1.00;;;;;;5075236;28;20298;-84
2021/01/10 06:02:01;;;;;;;14.18;10.95;;;2.80;1.00;;;;;;5054883;28;20221;-85
2021/01/10 06:04:28;;;;;;;17.10;11.65;;;2.80;1.00;;;;;;5048540;28;20225;-84
2021/01/10 06:06:56;;;;;;;16.88;11.50;;;2.80;1.00;;;;;;5051674;28;20314;-84
2021/01/10 06:09:23;;;;;;;14.60;10.32;;;2.80;1.00;;;;;;5052108;28;20232;-83
2021/01/10 06:11:49;;;;;;;14.02;10.60;;;2.80;1.00;;;;;;5049735;28;20302;-83
2021/01/10 06:14:21;;;;;;;19.90;12.32;;;2.80;1.00;;;;;;5052399;28;20229;-84
2021/01/10 06:16:53;;;;;;;16.08;10.70;;;2.80;1.00;;;;;;5058745;28;20281;-83
2021/01/10 06:19:26;;;;;;;18.25;12.02;;;2.70;1.00;;;;;;5056169;28;20248;-84
2021/01/10 06:21:56;;;;;;;18.98;12.45;;;2.70;1.00;;;;;;5053851;28;20293;-85
2021/01/10 06:24:24;;;;;;;14.50;11.35;;;2.60;1.00;;;;;;5053708;28;20229;-85
2021/01/10 06:27:06;;;;;;;13.95;11.05;;;2.70;1.00;;;;;;5058841;28;20210;-88
2021/01/10 06:29:43;;;;;;;17.48;11.65;;;2.60;1.00;;;;;;5080482;28;20217;-86
2021/01/10 06:32:11;;;;;;;20.08;11.65;;;2.60;1.00;;;;;;5049126;28;20229;-84
2021/01/10 06:34:43;;;;;;;13.90;11.23;;;2.60;1.00;;;;;;5050958;28;20225;-85
2021/01/10 06:37:10;;;;;;;17.90;11.35;;;2.60;1.00;;;;;;5064779;28;20229;-85
2021/01/10 06:39:48;;;;;;;13.75;10.85;;;2.60;1.00;;;;;;5061457;28;20252;-87
2021/01/10 06:42:16;;;;;;;14.73;10.55;;;2.70;1.00;;;;;;5066640;28;20258;-87
2021/01/10 06:44:46;;;;;;;13.45;9.95;;;2.70;1.00;;;;;;5070692;28;20217;-88
2021/01/10 06:47:25;;;;;;;11.10;8.85;;;2.70;1.00;;;;;;5064967;28;20202;-87
2021/01/10 06:49:53;;;;;;;13.20;10.60;;;2.70;1.00;;;;;;5079861;28;20225;-83
2021/01/10 06:52:23;;;;;;;14.40;10.88;;;2.60;1.00;;;;;;5048476;28;20230;-85
2021/01/10 06:54:51;;;;;;;14.57;10.70;;;2.60;1.00;;;;;;5056066;28;20291;-83
2021/01/10 06:57:18;;;;;;;13.27;9.45;;;2.60;1.00;;;;;;5055108;28;20220;-84
2021/01/10 07:00:08;;;;;;;12.45;8.63;;;2.60;1.00;;;;;;5068182;28;20864;-85
2021/01/10 07:03:07;;;;;;;11.07;8.25;;;2.60;1.00;;;;;;5065315;28;20221;-84
2021/01/10 07:06:01;;;;;;;11.52;8.93;;;2.60;1.00;;;;;;5056924;28;20235;-86
2021/01/10 07:08:31;;;;;;;13.32;8.88;;;2.60;1.00;;;;;;5060806;28;20225;-83
2021/01/10 07:11:45;;;;;;;11.98;9.32;;;2.60;1.00;;;;;;5068958;28;20225;-83
2021/01/10 07:14:29;;;;;;;13.93;8.73;;;2.50;1.00;;;;;;5069782;28;20225;-87
2021/01/10 07:17:14;;;;;;;11.23;8.10;;;2.50;1.00;;;;;;5069997;28;20216;-85
2021/01/10 07:19:42;;;;;;;13.63;9.65;;;2.50;1.00;;;;;;5069165;28;20241;-85
2021/01/10 07:22:33;;;;;;;16.90;13.57;;;2.60;1.00;;;;;;5061613;28;20209;-85
2021/01/10 07:25:34;;;;;;;13.57;9.27;;;2.60;1.00;;;;;;5048742;28;20229;-84
2021/01/10 07:28:34;;;;;;;12.70;10.52;;;2.70;1.00;;;;;;5075473;28;20215;-85
2021/01/10 07:31:22;;;;;;;14.85;11.05;;;2.70;1.00;;;;;;5078122;28;20210;-87
2021/01/10 07:34:09;;;;;;;13.20;9.90;;;2.70;1.00;;;;;;5080681;28;20217;-87
2021/01/10 07:36:53;;;;;;;12.80;10.23;;;2.70;1.00;;;;;;5074515;28;20239;-86
2021/01/10 07:39:23;;;;;;;17.98;11.68;;;2.60;1.00;;;;;;5074471;28;20239;-87
2021/01/10 07:41:51;;;;;;;14.80;11.20;;;2.70;1.00;;;;;;5062350;28;20213;-87
2021/01/10 07:44:21;;;;;;;16.48;10.05;;;2.70;1.00;;;;;;5064371;28;20213;-87
2021/01/10 07:46:57;;;;;;;15.55;11.35;;;2.60;1.00;;;;;;5095192;28;20212;-87
2021/01/10 07:49:26;;;;;;;14.27;10.30;;;2.70;1.00;;;;;;5099465;28;20213;-86
2021/01/10 07:51:52;;;;;;;14.15;10.85;;;2.70;1.00;;;;;;5062844;28;20309;-88
2021/01/10 07:54:39;;;;;;;11.48;9.27;;;2.70;1.00;;;;;;5064446;28;20230;-88
2021/01/10 07:57:29;;;;;;;11.30;9.25;;;2.70;1.00;;;;;;5079363;28;20214;-87
2021/01/10 08:00:14;;;;;;;14.05;9.05;;;2.70;1.00;;;;;;5078251;28;20216;-88
2021/01/10 08:02:48;;;;;;;12.50;9.38;;;2.60;1.00;;;;;;5084546;28;20242;-88
2021/01/10 08:05:17;;;;;;;12.73;9.88;;;2.60;1.00;;;;;;5064779;28;20230;-87
2021/01/10 08:07:52;;;;;;;14.68;11.20;;;2.70;1.00;;;;;;5069279;28;20217;-87
2021/01/10 08:10:19;;;;;;;15.60;10.55;;;2.60;1.00;;;;;;5084169;28;20225;-84
2021/01/10 08:12:46;;;;;;;14.07;10.23;;;2.70;1.00;;;;;;5075565;28;20255;-86
2021/01/10 08:15:13;;;;;;;11.15;9.00;;;2.70;1.00;;;;;;5061383;28;20222;-88
2021/01/10 08:17:40;;;;;;;12.00;8.82;;;2.70;1.00;;;;;;5078134;28;20273;-86
2021/01/10 08:20:08;;;;;;;13.15;9.75;;;2.60;1.00;;;;;;5078046;28;20237;-84
2021/01/10 08:22:38;;;;;;;11.15;9.63;;;2.70;1.00;;;;;;5048497;28;20252;-83
2021/01/10 08:25:06;;;;;;;12.25;8.20;;;2.70;1.00;;;;;;5068386;28;20229;-85
2021/01/10 08:27:33;;;;;;;17.92;11.15;;;2.70;1.00;;;;;;5084063;28;20271;-86
2021/01/10 08:30:01;;;;;;;12.45;9.52;;;2.80;1.00;;;;;;5056421;28;20282;-85
2021/01/10 08:32:27;;;;;;;13.57;9.20;;;2.80;1.00;;;;;;5076749;28;20221;-84
2021/01/10 08:34:56;;;;;;;12.00;9.00;;;2.80;1.00;;;;;;5063470;28;20240;-86
2021/01/10 08:37:24;;;;;;;10.68;8.82;;;2.80;1.00;;;;;;5077909;28;20217;-87
2021/01/10 08:42:42;;;;;;;12.65;9.05;;;2.70;1.00;;;;;;5046682;28;20804;-87
2021/01/10 08:45:19;;;;;;;13.38;8.02;;;2.60;1.00;;;;;;5048365;28;20227;-88
2021/01/10 08:47:47;;;;;;;10.85;8.32;;;2.60;1.00;;;;;;5071174;28;20221;-86
2021/01/10 08:50:16;;;;;;;10.50;8.15;;;2.60;1.00;;;;;;5074736;28;20282;-85
2021/01/10 08:52:56;;;;;;;10.85;8.68;;;2.60;1.00;;;;;;5044903;28;20222;-85
2021/01/10 08:55:35;;;;;;;10.52;8.82;;;2.60;1.00;;;;;;5075572;28;20221;-85
2021/01/10 08:58:03;;;;;;;11.68;8.40;;;2.60;1.00;;;;;;5070154;28;20229;-84
2021/01/10 09:00:31;;;;;;;11.88;9.82;;;2.70;1.00;;;;;;5043915;28;20295;-84
2021/01/10 09:03:14;;;;;;;11.55;10.23;;;2.70;1.00;;;;;;5050621;28;20236;-86
2021/01/10 09:05:41;;;;;;;10.73;8.23;;;2.70;1.00;;;;;;5045445;28;20292;-87
2021/01/10 09:08:18;;;;;;;12.73;8.90;;;2.70;1.00;;;;;;5048436;28;20286;-87
2021/01/10 09:10:52;;;;;;;11.73;9.82;;;2.70;1.00;;;;;;5051493;28;20231;-85
2021/01/10 09:13:21;;;;;;;11.38;9.20;;;2.80;1.00;;;;;;5050449;28;20221;-84
2021/01/10 09:15:51;;;;;;;10.95;9.30;;;2.70;1.00;;;;;;5061399;28;20227;-85
2021/01/10 09:18:21;;;;;;;13.13;9.60;;;2.70;1.00;;;;;;5054777;28;20238;-85
2021/01/10 09:20:54;;;;;;;10.88;8.75;;;2.70;1.00;;;;;;5048520;28;20313;-84
2021/01/10 09:23:22;;;;;;;10.82;8.50;;;2.60;1.00;;;;;;5050067;28;20282;-86
2021/01/10 09:25:51;;;;;;;9.95;7.95;;;2.50;1.00;;;;;;5081578;28;20229;-86
2021/01/10 09:28:19;;;;;;;11.00;8.07;;;2.50;1.00;;;;;;5061708;28;20221;-86
2021/01/10 09:30:53;;;;;;;13.50;9.43;;;2.40;1.00;;;;;;5064336;28;20231;-86
2021/01/10 09:33:25;;;;;;;11.35;9.45;;;2.50;1.00;;;;;;5050084;28;20240;-84
2021/01/10 09:35:53;;;;;;;10.77;8.65;;;2.50;1.00;;;;;;5079259;28;20225;-84
2021/01/10 09:38:23;;;;;;;10.70;8.02;;;2.50;1.00;;;;;;5056499;28;20233;-84
2021/01/10 09:41:04;;;;;;;10.35;7.57;;;2.50;1.00;;;;;;5082607;28;20217;-83
2021/01/10 09:43:42;;;;;;;10.05;8.23;;;2.40;1.00;;;;;;5065625;28;20214;-87
2021/01/10 09:46:23;;;;;;;8.38;7.13;;;2.40;1.00;;;;;;5062025;28;20232;-86
2021/01/10 09:48:54;;;;;;;10.63;9.52;;;2.40;1.00;;;;;;5065319;28;20222;-88
2021/01/10 09:51:24;;;;;;;11.85;8.63;;;2.40;1.00;;;;;;5078792;28;20228;-89
2021/01/10 09:53:51;;;;;;;11.00;8.13;;;2.40;1.00;;;;;;5051436;28;20749;-86
2021/01/10 09:56:47;;;;;;;14.15;9.65;;;2.50;1.00;;;;;;5078574;28;20244;-86
2021/01/10 09:59:41;;;;;;;11.82;8.75;;;2.60;1.00;;;;;;5056238;28;20233;-87
2021/01/10 10:02:15;;;;;;;13.27;9.40;;;2.70;1.00;;;;;;5058938;28;21194;-83
2021/01/10 10:04:45;;;;;;;11.10;8.82;;;2.80;1.00;;;;;;5079416;28;20217;-81
2021/01/10 10:07:13;;;;;;;14.32;10.32;;;2.90;1.00;;;;;;5071557;28;20217;-82
2021/01/10 10:09:51;;;;;;;12.82;9.98;;;3.00;1.00;;;;;;5074405;28;20253;-82
2021/01/10 10:12:18;;;;;;;11.25;9.05;;;3.00;1.00;;;;;;5087631;28;20233;-81
2021/01/10 10:14:56;;;;;;;11.07;8.57;;;3.00;1.00;;;;;;5065871;28;20216;-81
2021/01/10 10:17:26;;;;;;;10.85;9.07;;;3.00;1.00;;;;;;5063081;28;20212;-83
2021/01/10 10:19:54;;;;;;;13.07;8.73;;;3.10;1.00;;;;;;5065024;28;20288;-83
2021/01/10 10:22:25;;;;;;;12.88;9.48;;;3.20;1.00;;;;;;5085630;28;20233;-80
2021/01/10 10:24:52;;;;;;;11.85;9.90;;;3.20;1.00;;;;;;5081764;28;20270;-82
2021/01/10 10:27:19;;;;;;;10.93;9.27;;;3.00;1.00;;;;;;5064398;28;20217;-80
2021/01/10 10:29:46;;;;;;;12.35;8.70;;;3.00;1.00;;;;;;5062209;28;20218;-81
2021/01/10 10:32:13;;;;;;;10.25;8.48;;;3.10;1.00;;;;;;5073767;28;20224;-81
2021/01/10 10:34:41;;;;;;;13.10;9.38;;;3.10;1.00;;;;;;5068294;28;20221;-82
2021/01/10 10:37:09;;;;;;;11.55;9.35;;;3.00;1.00;;;;;;5061608;28;20229;-81
2021/01/10 10:39:36;;;;;;;9.50;8.32;;;3.10;1.00;;;;;;5087290;28;20252;-83
2021/01/10 10:42:03;;;;;;;12.65;8.93;;;3.20;1.00;;;;;;5066797;28;20231;-82
2021/01/10 10:44:30;;;;;;;10.00;8.65;;;3.20;1.00;;;;;;5092755;28;20226;-83
2021/01/10 10:46:56;;;;;;;10.85;9.13;;;3.30;1.00;;;;;;5056486;28;20240;-82
2021/01/10 10:49:23;;;;;;;17.67;11.05;;;3.30;1.00;;;;;;5087059;28;20223;-83
2021/01/10 10:51:49;;;;;;;11.48;9.48;;;3.40;1.00;;;;;;5078087;28;20244;-83
2021/01/10 10:54:17;;;;;;;10.80;9.43;;;3.40;1.00;;;;;;5068358;28;20210;-83
2021/01/10 10:56:47;;;;;;;18.52;11.07;;;3.40;1.00;;;;;;5074191;28;20231;-81
2021/01/10 10:59:15;;;;;;;19.70;11.65;;;3.30;1.00;;;;;;5077169;28;20375;-80
2021/01/10 11:01:45;;;;;;;12.98;9.95;;;3.20;1.00;;;;;;5070330;28;20229;-82
2021/01/10 11:04:13;;;;;;;16.67;11.10;;;3.20;1.00;;;;;;5059042;28;20244;-83
2021/01/10 11:06:42;;;;;;;16.90;11.30;;;3.30;1.00;;;;;;5068536;28;20230;-83
2021/01/10 11:09:11;;;;;;;13.27;10.50;;;3.40;1.00;;;;;;5069534;28;20233;-82
2021/01/10 11:11:41;;;;;;;16.13;10.73;;;3.60;1.00;;;;;;5047699;28;20221;-83
2021/01/10 11:14:09;;;;;;;13.40;10.27;;;4.10;1.00;;;;;;5048903;28;20264;-82
2021/01/10 11:16:36;;;;;;;11.95;9.80;;;4.40;1.00;;;;;;5066658;28;20276;-83
2021/01/10 11:19:03;;;;;;;10.50;9.10;;;4.70;1.00;;;;;;5070070;28;20233;-83
2021/01/10 11:21:34;;;;;;;10.18;9.05;;;4.80;1.00;;;;;;5059070;28;20236;-82
2021/01/10 11:24:01;;;;;;;10.18;8.05;;;4.60;1.00;;;;;;5057076;28;20229;-82
2021/01/10 11:26:28;;;;;;;9.63;7.75;;;4.30;1.00;;;;;;5068630;28;20221;-82
2021/01/10 11:28:56;;;;;;;12.40;9.40;;;3.80;1.00;;;;;;5059564;28;20240;-82
2021/01/10 11:31:24;;;;;;;10.98;8.75;;;3.80;1.00;;;;;;5064159;28;20234;-82
2021/01/10 11:33:50;;;;;;;12.75;9.57;;;3.90;1.00;;;;;;5071979;28;20226;-83
2021/01/10 11:36:18;;;;;;;13.38;10.00;;;3.90;1.00;;;;;;5077331;28;20225;-81
2021/01/10 11:38:48;;;;;;;11.77;10.18;;;4.40;1.00;;;;;;5089394;28;20221;-80
2021/01/10 11:41:15;;;;;;;11.77;9.60;;;5.10;1.00;;;;;;5061111;28;20236;-83
2021/01/10 11:43:41;;;;;;;11.00;8.77;;;6.00;1.00;;;;;;5060982;28;20228;-83
2021/01/10 11:46:11;;;;;;;10.82;8.55;;;6.70;1.00;;;;;;5074939;28;20217;-84
2021/01/10 11:48:41;;;;;;;10.27;8.18;;;7.40;1.00;;;;;;5073328;28;20221;-84
2021/01/10 11:51:11;;;;;;;11.30;8.90;;;7.50;1.00;;;;;;5063619;28;20229;-84
2021/01/10 11:53:38;;;;;;;10.07;8.20;;;7.80;1.00;;;;;;5069218;28;20247;-82
2021/01/10 11:56:07;;;;;;;10.35;8.48;;;8.50;1.00;;;;;;5069662;28;20213;-86
2021/01/10 11:58:34;;;;;;;11.82;8.98;;;8.80;1.00;;;;;;5067298;28;20225;-84
2021/01/10 12:01:01;;;;;;;11.82;9.25;;;8.40;1.00;;;;;;5078783;28;20284;-84
2021/01/10 12:03:29;;;;;;;9.82;8.20;;;8.30;1.00;;;;;;5056153;28;20216;-86
2021/01/10 12:05:55;;;;;;;10.27;8.38;;;8.70;1.00;;;;;;5065001;28;20819;-82
2021/01/10 12:08:23;;;;;;;14.75;10.15;;;8.40;1.00;;;;;;5074530;28;20225;-81
2021/01/10 12:10:50;;;;;;;11.82;9.77;;;7.70;1.00;;;;;;5075889;28;20225;-85
2021/01/10 12:13:17;;;;;;;12.07;9.88;;;7.30;1.00;;;;;;5080602;28;20236;-86
2021/01/10 12:15:45;;;;;;;10.20;8.95;;;7.40;1.00;;;;;;5068731;28;20256;-85
2021/01/10 12:18:13;;;;;;;11.15;9.15;;;7.50;1.00;;;;;;5086697;28;20292;-84
2021/01/10 12:21:05;;;;;;;11.38;7.97;;;7.50;1.00;;;;;;5090929;28;20231;-85
2021/01/10 12:23:35;;;;;;;15.40;10.20;;;7.00;1.00;;;;;;5079135;28;20309;-84
2021/01/10 12:26:07;;;;;;;13.52;10.55;;;6.60;1.00;;;;;;5070189;28;20233;-85
2021/01/10 12:28:38;;;;;;;13.38;9.07;;;6.40;1.00;;;;;;5064005;28;20362;-88
2021/01/10 12:31:07;;;;;;;9.90;7.75;;;6.00;1.00;;;;;;5082305;28;20225;-88
2021/01/10 12:33:36;;;;;;;10.75;8.63;;;5.50;1.00;;;;;;5074639;28;20236;-86
2021/01/10 12:36:09;;;;;;;10.25;8.38;;;5.10;1.00;;;;;;5050009;28;21556;-88
2021/01/10 12:38:37;;;;;;;15.07;8.50;;;5.20;1.00;;;;;;5053743;28;20229;-89
2021/01/10 12:41:04;;;;;;;10.45;8.80;;;5.50;1.00;;;;;;5066738;28;20287;-87
2021/01/10 12:43:31;;;;;;;9.25;7.80;;;6.10;1.00;;;;;;5079776;28;20241;-85
2021/01/10 12:45:58;;;;;;;8.90;7.25;;;6.30;1.00;;;;;;5068631;28;20256;-86
2021/01/10 12:48:24;;;;;;;9.80;7.72;;;6.20;1.00;;;;;;5072777;28;20294;-86
2021/01/10 12:50:51;;;;;;;8.90;8.00;;;6.20;1.00;;;;;;5057562;28;20237;-85
2021/01/10 12:53:20;;;;;;;10.32;7.53;;;6.00;1.00;;;;;;5068325;28;20232;-85
2021/01/10 12:55:47;;;;;;;10.65;8.05;;;5.70;1.00;;;;;;5054602;28;20229;-86
2021/01/10 12:58:14;;;;;;;12.32;9.15;;;5.40;1.00;;;;;;5081710;28;20233;-85
2021/01/10 13:00:41;;;;;;;14.25;9.60;;;5.10;1.00;;;;;;5060016;28;20241;-84
2021/01/10 13:03:08;;;;;;;12.05;10.13;;;4.80;1.00;;;;;;5064239;28;20493;-86
2021/01/10 13:05:38;;;;;;;9.75;8.07;;;4.60;1.00;;;;;;5081983;28;20235;-85
2021/01/10 13:08:05;;;;;;;10.88;8.90;;;4.40;1.00;;;;;;5088266;28;20477;-84
2021/01/10 13:10:33;;;;;;;10.30;7.88;;;4.10;1.00;;;;;;5065803;28;20244;-85
2021/01/10 13:13:00;;;;;;;16.60;9.40;;;4.10;1.00;;;;;;5055568;28;20690;-85